Time;durP1;ratioP1;P1;durP2;ratioP2;P2;SDS_P1;SDS_P2;PMS_P1;PMS_P2;Temp;Humidity;BMP_temperature;BMP_pressure;BME280_temperature;BME280_humidity;BME280_pressure;Samples;Min_cycle;Max_cycle;Signal;HPM_P1;HPM_P2
2022/03/08 00:00:26;;;;;;;19.48;16.25;;;;;;;;;;5000201;28;20040;-73
2022/03/08 00:02:51;;;;;;;17.73;15.88;;;;;;;;;;5001929;28;20044;-72
2022/03/08 00:05:18;;;;;;;18.38;14.85;;;;;;;;;;5002311;28;20031;-72
2022/03/08 00:07:46;;;;;;;20.52;15.40;;;;;;;;;;5006659;28;20034;-72
2022/03/08 00:10:13;;;;;;;18.52;15.18;;;;;;;;;;5003997;28;20096;-73
2022/03/08 00:12:39;;;;;;;18.48;15.40;;;;;;;;;;5005136;28;20049;-73
2022/03/08 00:15:08;;;;;;;19.50;15.18;;;;;;;;;;5008745;28;20041;-72
2022/03/08 00:17:34;;;;;;;18.13;15.50;;;;;;;;;;5005370;28;20033;-74
2022/03/08 00:19:59;;;;;;;18.33;15.40;;;;;;;;;;5008106;28;20034;-72
2022/03/08 00:22:25;;;;;;;17.48;15.68;;;;;;;;;;5004060;28;20171;-72
2022/03/08 00:24:51;;;;;;;18.42;15.23;;;;;;;;;;5004733;28;20030;-72
2022/03/08 00:27:17;;;;;;;18.33;16.33;;;;;;;;;;5000243;28;20436;-72
2022/03/08 00:29:43;;;;;;;18.65;15.05;;;;;;;;;;5007877;28;20030;-72
2022/03/08 00:32:09;;;;;;;18.77;16.13;;;;;;;;;;4999905;28;20097;-73
2022/03/08 00:34:35;;;;;;;17.75;15.85;;;;;;;;;;4993141;28;20034;-72
2022/03/08 00:37:00;;;;;;;21.10;15.60;;;;;;;;;;4973527;28;20508;-73
2022/03/08 00:39:26;;;;;;;18.00;16.10;;;;;;;;;;4982676;28;20149;-71
2022/03/08 00:41:52;;;;;;;17.73;15.00;;;;;;;;;;5008764;28;20505;-72
2022/03/08 00:44:17;;;;;;;22.83;15.70;;;;;;;;;;4990012;28;20489;-73
2022/03/08 00:46:43;;;;;;;17.65;15.40;;;;;;;;;;5005624;28;20122;-72
2022/03/08 00:49:09;;;;;;;16.80;15.00;;;;;;;;;;4994030;28;20045;-73
2022/03/08 00:51:34;;;;;;;16.52;14.75;;;;;;;;;;4985828;28;20036;-72
2022/03/08 00:54:00;;;;;;;18.10;14.85;;;;;;;;;;4988329;28;20042;-72
2022/03/08 00:56:26;;;;;;;15.68;13.98;;;;;;;;;;5000661;28;20030;-73
2022/03/08 00:58:52;;;;;;;19.92;15.43;;;;;;;;;;5006731;28;20041;-72
2022/03/08 01:01:17;;;;;;;17.52;14.75;;;;;;;;;;5002687;28;20049;-69
2022/03/08 01:03:43;;;;;;;17.15;14.38;;;;;;;;;;4993594;28;20041;-70
2022/03/08 01:06:09;;;;;;;18.55;14.73;;;;;;;;;;4982419;28;20042;-71
2022/03/08 01:08:34;;;;;;;15.52;13.93;;;;;;;;;;4996437;28;20040;-71
2022/03/08 01:11:00;;;;;;;16.58;14.18;;;;;;;;;;4997907;28;20406;-70
2022/03/08 01:13:26;;;;;;;15.05;13.35;;;;;;;;;;4971004;28;20184;-70
2022/03/08 01:15:52;;;;;;;18.20;14.45;;;;;;;;;;5007291;28;20037;-70
2022/03/08 01:18:18;;;;;;;13.90;12.45;;;;;;;;;;4991253;28;20045;-71
2022/03/08 01:20:43;;;;;;;15.43;13.43;;;;;;;;;;5003878;28;20062;-71
2022/03/08 01:23:09;;;;;;;15.88;14.13;;;;;;;;;;5006106;28;20103;-70
2022/03/08 01:25:37;;;;;;;16.33;14.30;;;;;;;;;;4991297;28;20108;-74
2022/03/08 01:28:03;;;;;;;15.43;13.27;;;;;;;;;;5002445;28;20038;-71
2022/03/08 01:30:28;;;;;;;17.00;14.07;;;;;;;;;;4998959;28;20048;-71
2022/03/08 01:32:54;;;;;;;17.95;14.50;;;;;;;;;;4975964;28;20521;-71
2022/03/08 01:35:20;;;;;;;14.50;13.10;;;;;;;;;;5007615;28;20403;-72
2022/03/08 01:37:46;;;;;;;15.10;13.52;;;;;;;;;;4989725;28;20045;-72
2022/03/08 01:40:15;;;;;;;16.52;13.93;;;;;;;;;;5006532;28;20041;-73
2022/03/08 01:42:47;;;;;;;16.23;14.43;;;;;;;;;;4994770;28;20080;-71
2022/03/08 01:45:19;;;;;;;15.95;14.32;;;;;;;;;;5006592;28;20677;-71
2022/03/08 01:47:45;;;;;;;14.85;13.40;;;;;;;;;;5007538;28;20405;-70
2022/03/08 01:50:12;;;;;;;16.35;14.48;;;;;;;;;;5006983;28;20045;-73
2022/03/08 01:52:39;;;;;;;15.88;14.20;;;;;;;;;;4984581;28;20465;-70
2022/03/08 01:55:07;;;;;;;18.40;14.43;;;;;;;;;;4997718;28;20032;-71
2022/03/08 01:57:33;;;;;;;16.45;13.90;;;;;;;;;;5003905;28;20087;-71
2022/03/08 01:59:58;;;;;;;16.65;14.85;;;;;;;;;;5004842;28;20041;-71
2022/03/08 02:02:24;;;;;;;15.43;13.80;;;;;;;;;;4998979;28;20061;-71
2022/03/08 02:04:51;;;;;;;15.75;14.07;;;;;;;;;;5005357;28;20121;-69
2022/03/08 02:07:17;;;;;;;15.25;13.63;;;;;;;;;;5002956;28;20049;-71
2022/03/08 02:09:43;;;;;;;14.98;13.50;;;;;;;;;;5009523;28;20413;-71
2022/03/08 02:12:10;;;;;;;16.00;14.38;;;;;;;;;;5003037;28;20046;-70
2022/03/08 02:14:35;;;;;;;15.80;14.10;;;;;;;;;;5002703;28;20045;-72
2022/03/08 02:17:01;;;;;;;15.35;13.85;;;;;;;;;;5004186;28;20041;-71
2022/03/08 02:19:27;;;;;;;15.43;13.80;;;;;;;;;;5007539;28;20045;-70
2022/03/08 02:21:54;;;;;;;15.77;14.18;;;;;;;;;;5006573;28;20033;-70
2022/03/08 02:24:20;;;;;;;17.05;13.55;;;;;;;;;;5003491;28;20320;-71
2022/03/08 02:26:46;;;;;;;18.15;14.27;;;;;;;;;;5008164;28;20895;-71
2022/03/08 02:29:12;;;;;;;17.27;14.02;;;;;;;;;;5005571;28;20444;-70
2022/03/08 02:31:38;;;;;;;18.92;14.75;;;;;;;;;;4994630;28;20437;-71
2022/03/08 02:34:04;;;;;;;14.45;13.15;;;;;;;;;;5001926;28;20030;-70
2022/03/08 02:36:30;;;;;;;17.83;14.02;;;;;;;;;;5005235;28;20120;-71
2022/03/08 02:38:56;;;;;;;15.35;13.75;;;;;;;;;;5000026;28;20486;-69
2022/03/08 02:41:22;;;;;;;15.15;13.55;;;;;;;;;;5010919;28;20049;-69
2022/03/08 02:43:48;;;;;;;15.55;13.80;;;;;;;;;;5006676;28;20458;-72
2022/03/08 02:46:13;;;;;;;16.55;14.52;;;;;;;;;;5003721;28;20442;-70
2022/03/08 02:48:39;;;;;;;17.60;15.18;;;;;;;;;;5003422;28;20401;-70
2022/03/08 02:51:05;;;;;;;20.02;14.27;;;;;;;;;;4988208;28;20034;-71
2022/03/08 02:53:31;;;;;;;15.38;13.85;;;;;;;;;;5010536;28;20038;-70
2022/03/08 02:55:57;;;;;;;15.15;13.52;;;;;;;;;;4992359;28;20034;-71
2022/03/08 02:58:22;;;;;;;19.88;13.73;;;;;;;;;;5001149;28;20038;-70
2022/03/08 03:00:48;;;;;;;15.63;13.73;;;;;;;;;;4993374;28;20090;-70
2022/03/08 03:03:14;;;;;;;16.05;14.35;;;;;;;;;;4999848;28;20137;-70
2022/03/08 03:05:39;;;;;;;15.50;13.93;;;;;;;;;;4977610;28;20038;-71
2022/03/08 03:08:06;;;;;;;16.77;13.93;;;;;;;;;;5003500;28;20037;-70
2022/03/08 03:10:32;;;;;;;16.80;14.77;;;;;;;;;;5000286;28;20501;-70
2022/03/08 03:12:59;;;;;;;20.38;16.20;;;;;;;;;;5009107;28;20030;-70
2022/03/08 03:15:26;;;;;;;19.58;15.75;;;;;;;;;;5012812;28;20033;-72
2022/03/08 03:17:53;;;;;;;17.67;14.48;;;;;;;;;;5010770;28;20660;-71
2022/03/08 03:20:20;;;;;;;22.90;15.90;;;;;;;;;;5014973;28;20041;-72
2022/03/08 03:22:47;;;;;;;20.85;16.05;;;;;;;;;;5004867;28;20052;-71
2022/03/08 03:25:14;;;;;;;21.42;17.50;;;;;;;;;;5010162;28;20033;-69
2022/03/08 03:27:41;;;;;;;19.80;14.60;;;;;;;;;;5005037;28;20029;-70
2022/03/08 03:30:09;;;;;;;19.35;14.27;;;;;;;;;;5014597;28;20029;-70
2022/03/08 03:32:35;;;;;;;14.35;12.95;;;;;;;;;;5007296;28;20045;-70
2022/03/08 03:35:01;;;;;;;13.93;12.52;;;;;;;;;;5010336;28;20409;-70
2022/03/08 03:37:27;;;;;;;14.75;13.02;;;;;;;;;;4997712;28;20037;-69
2022/03/08 03:39:53;;;;;;;15.38;13.80;;;;;;;;;;5008646;28;20056;-71
2022/03/08 03:42:19;;;;;;;14.90;13.40;;;;;;;;;;5005715;28;20569;-72
2022/03/08 03:44:45;;;;;;;13.50;12.25;;;;;;;;;;5013251;28;20113;-70
2022/03/08 03:47:10;;;;;;;13.68;12.38;;;;;;;;;;4997973;28;20136;-70
2022/03/08 03:49:36;;;;;;;18.73;13.82;;;;;;;;;;5009111;28;20034;-72
2022/03/08 03:52:03;;;;;;;13.80;12.50;;;;;;;;;;5009550;28;20045;-70
2022/03/08 03:54:29;;;;;;;14.93;13.38;;;;;;;;;;5008771;28;20042;-70
2022/03/08 03:56:54;;;;;;;16.58;13.27;;;;;;;;;;4995757;28;20033;-70
2022/03/08 03:59:20;;;;;;;16.40;14.05;;;;;;;;;;5002805;28;20066;-69
2022/03/08 04:01:46;;;;;;;16.17;14.57;;;;;;;;;;5003916;28;20417;-70
2022/03/08 04:04:11;;;;;;;15.38;13.90;;;;;;;;;;5007534;28;20038;-71
2022/03/08 04:06:37;;;;;;;14.23;12.95;;;;;;;;;;5004365;28;20104;-71
2022/03/08 04:09:05;;;;;;;16.08;14.43;;;;;;;;;;5002145;28;20038;-70
2022/03/08 04:11:31;;;;;;;18.52;14.27;;;;;;;;;;5003856;28;20459;-71
2022/03/08 04:13:57;;;;;;;15.52;13.40;;;;;;;;;;5005952;28;20058;-70
2022/03/08 04:16:22;;;;;;;15.77;13.38;;;;;;;;;;5005753;28;20030;-70
2022/03/08 04:18:48;;;;;;;15.70;13.90;;;;;;;;;;5014148;28;20034;-70
2022/03/08 04:21:13;;;;;;;18.05;14.60;;;;;;;;;;5001709;28;20042;-70
2022/03/08 04:23:39;;;;;;;16.83;13.57;;;;;;;;;;5000523;28;20537;-72
2022/03/08 04:26:06;;;;;;;13.05;11.95;;;;;;;;;;5006808;28;20026;-69
2022/03/08 04:28:31;;;;;;;14.45;12.95;;;;;;;;;;5008204;28;20124;-70
2022/03/08 04:30:57;;;;;;;17.15;13.48;;;;;;;;;;5007902;28;20179;-70
2022/03/08 04:33:23;;;;;;;14.70;13.23;;;;;;;;;;5004525;28;20289;-72
2022/03/08 04:35:48;;;;;;;14.63;13.15;;;;;;;;;;4991501;28;20873;-70
2022/03/08 04:38:14;;;;;;;12.60;11.45;;;;;;;;;;5003769;28;20569;-70
2022/03/08 04:40:40;;;;;;;14.02;12.70;;;;;;;;;;5007372;28;20037;-72
2022/03/08 04:43:05;;;;;;;13.85;12.50;;;;;;;;;;4995658;28;20123;-71
2022/03/08 04:45:31;;;;;;;13.75;12.50;;;;;;;;;;5004919;28;20393;-69
2022/03/08 04:47:57;;;;;;;15.55;14.02;;;;;;;;;;5009420;28;20111;-70
2022/03/08 04:50:22;;;;;;;13.13;12.02;;;;;;;;;;5004125;28;20516;-72
2022/03/08 04:52:51;;;;;;;13.40;12.20;;;;;;;;;;5003394;28;20030;-72
2022/03/08 04:55:18;;;;;;;13.48;12.20;;;;;;;;;;5001465;28;20109;-72
2022/03/08 04:57:44;;;;;;;14.18;12.80;;;;;;;;;;5003864;28;20053;-72
2022/03/08 05:00:12;;;;;;;13.35;12.25;;;;;;;;;;5012950;28;20041;-69
2022/03/08 05:02:39;;;;;;;14.30;12.90;;;;;;;;;;5006754;28;20161;-70
2022/03/08 05:05:08;;;;;;;13.15;11.85;;;;;;;;;;5002586;28;20061;-69
2022/03/08 05:07:38;;;;;;;12.93;11.80;;;;;;;;;;5005583;28;20037;-70
2022/03/08 05:10:05;;;;;;;11.27;10.38;;;;;;;;;;5008020;28;20109;-72
2022/03/08 05:12:30;;;;;;;13.13;11.93;;;;;;;;;;5002348;28;20042;-69
2022/03/08 05:14:57;;;;;;;14.43;12.32;;;;;;;;;;5000828;28;20149;-69
2022/03/08 05:17:22;;;;;;;13.10;11.90;;;;;;;;;;5001386;28;20529;-71
2022/03/08 05:19:48;;;;;;;12.77;11.60;;;;;;;;;;5009971;28;20046;-70
2022/03/08 05:22:14;;;;;;;12.40;11.20;;;;;;;;;;5002093;28;20536;-72
2022/03/08 05:24:40;;;;;;;14.52;12.85;;;;;;;;;;5003584;28;20033;-70
2022/03/08 05:27:07;;;;;;;14.35;11.40;;;;;;;;;;5003868;28;20034;-72
2022/03/08 05:29:33;;;;;;;11.90;11.00;;;;;;;;;;5010620;28;20507;-71
2022/03/08 05:31:59;;;;;;;13.57;12.32;;;;;;;;;;5007312;28;20037;-71
2022/03/08 05:34:24;;;;;;;12.73;11.52;;;;;;;;;;4983872;28;20400;-69
2022/03/08 05:36:50;;;;;;;13.68;12.40;;;;;;;;;;5010802;28;20108;-69
2022/03/08 05:39:16;;;;;;;13.10;11.98;;;;;;;;;;5002958;28;20037;-72
2022/03/08 05:41:41;;;;;;;13.07;11.77;;;;;;;;;;5008244;28;20037;-69
2022/03/08 05:44:07;;;;;;;13.18;11.88;;;;;;;;;;5005177;28;20406;-69
2022/03/08 05:46:33;;;;;;;13.57;12.27;;;;;;;;;;5001422;28;20054;-71
2022/03/08 05:48:58;;;;;;;17.73;11.85;;;;;;;;;;5008160;28;20044;-72
2022/03/08 05:51:24;;;;;;;12.30;11.30;;;;;;;;;;5010004;28;20052;-69
2022/03/08 05:53:49;;;;;;;14.07;12.80;;;;;;;;;;5007631;28;20040;-73
2022/03/08 05:56:15;;;;;;;12.30;11.27;;;;;;;;;;5008280;28;20042;-71
2022/03/08 05:58:41;;;;;;;12.55;11.52;;;;;;;;;;5009348;28;20046;-71
2022/03/08 06:01:06;;;;;;;14.00;12.60;;;;;;;;;;4996302;28;20120;-71
2022/03/08 06:03:32;;;;;;;13.98;12.48;;;;;;;;;;5003256;28;20045;-71
2022/03/08 06:05:58;;;;;;;12.57;11.57;;;;;;;;;;5003036;28;20041;-71
2022/03/08 06:08:23;;;;;;;12.52;11.32;;;;;;;;;;5009312;28;20481;-70
2022/03/08 06:10:49;;;;;;;13.77;12.38;;;;;;;;;;5009132;28;20370;-72
2022/03/08 06:13:15;;;;;;;13.27;12.00;;;;;;;;;;5009117;28;20049;-71
2022/03/08 06:15:40;;;;;;;17.98;12.60;;;;;;;;;;5007138;28;20493;-70
2022/03/08 06:18:06;;;;;;;13.38;12.10;;;;;;;;;;5013837;28;20045;-70
2022/03/08 06:20:31;;;;;;;13.05;11.88;;;;;;;;;;5016883;28;20041;-72
2022/03/08 06:22:57;;;;;;;15.93;12.30;;;;;;;;;;5006746;28;20033;-70
2022/03/08 06:25:23;;;;;;;13.70;12.18;;;;;;;;;;5008531;28;20037;-70
2022/03/08 06:27:48;;;;;;;13.18;12.05;;;;;;;;;;5008540;28;20038;-70
2022/03/08 06:30:14;;;;;;;14.10;12.90;;;;;;;;;;5008004;28;20045;-73
2022/03/08 06:32:39;;;;;;;15.48;13.30;;;;;;;;;;5007426;28;20034;-69
2022/03/08 06:35:05;;;;;;;14.15;12.90;;;;;;;;;;5008489;28;20622;-70
2022/03/08 06:37:31;;;;;;;13.75;12.40;;;;;;;;;;5008080;28;20117;-72
2022/03/08 06:39:57;;;;;;;18.80;14.07;;;;;;;;;;5005778;28;20121;-72
2022/03/08 06:42:22;;;;;;;15.95;14.45;;;;;;;;;;5008362;28;20473;-72
2022/03/08 06:44:48;;;;;;;13.48;12.38;;;;;;;;;;5008117;28;20034;-69
2022/03/08 06:47:14;;;;;;;16.75;15.13;;;;;;;;;;5009890;28;20149;-70
2022/03/08 06:49:41;;;;;;;14.18;12.98;;;;;;;;;;5019640;28;20065;-70
2022/03/08 06:52:08;;;;;;;15.05;13.75;;;;;;;;;;5012308;28;20037;-70
2022/03/08 06:54:34;;;;;;;13.20;12.10;;;;;;;;;;5012210;28;20450;-70
2022/03/08 06:57:00;;;;;;;14.93;13.38;;;;;;;;;;5005820;28;20092;-71
2022/03/08 06:59:26;;;;;;;14.75;13.45;;;;;;;;;;5012691;28;20400;-71
2022/03/08 07:01:52;;;;;;;14.10;12.70;;;;;;;;;;5011929;28;20041;-71
2022/03/08 07:04:18;;;;;;;14.18;12.80;;;;;;;;;;5012463;28;20469;-71
2022/03/08 07:06:43;;;;;;;14.20;12.68;;;;;;;;;;5010312;28;20099;-71
2022/03/08 07:09:10;;;;;;;14.50;13.20;;;;;;;;;;5012270;28;20069;-70
2022/03/08 07:11:36;;;;;;;14.63;13.32;;;;;;;;;;5012453;28;20034;-70
2022/03/08 07:14:03;;;;;;;13.77;12.68;;;;;;;;;;5012281;28;20163;-70
2022/03/08 07:16:28;;;;;;;13.07;12.10;;;;;;;;;;5006953;28;20033;-71
2022/03/08 07:18:54;;;;;;;14.75;13.48;;;;;;;;;;5017333;28;20033;-71
2022/03/08 07:21:20;;;;;;;14.90;13.40;;;;;;;;;;5016043;28;20504;-72
2022/03/08 07:23:45;;;;;;;14.73;13.40;;;;;;;;;;5010350;28;20038;-72
2022/03/08 07:26:11;;;;;;;15.02;13.60;;;;;;;;;;5011935;28;20345;-71
2022/03/08 07:28:37;;;;;;;14.52;13.07;;;;;;;;;;5011411;28;20044;-71
2022/03/08 07:31:03;;;;;;;14.23;12.80;;;;;;;;;;5011677;28;20045;-70
2022/03/08 07:33:28;;;;;;;15.20;13.68;;;;;;;;;;5003966;28;20064;-71
2022/03/08 07:35:54;;;;;;;15.55;13.27;;;;;;;;;;5009919;28;20512;-73
2022/03/08 07:38:20;;;;;;;15.52;14.15;;;;;;;;;;5010207;28;20516;-71
2022/03/08 07:40:46;;;;;;;14.98;12.77;;;;;;;;;;5009843;28;20044;-70
2022/03/08 07:43:12;;;;;;;14.20;13.00;;;;;;;;;;5011428;28;20045;-71
2022/03/08 07:45:38;;;;;;;14.88;13.40;;;;;;;;;;5011105;28;20041;-70
2022/03/08 07:48:05;;;;;;;14.73;13.55;;;;;;;;;;5010581;28;20037;-70
2022/03/08 07:50:37;;;;;;;14.70;13.52;;;;;;;;;;5011191;28;20503;-70
2022/03/08 07:53:04;;;;;;;16.42;15.02;;;;;;;;;;5006104;28;20096;-70
2022/03/08 07:55:30;;;;;;;16.23;14.82;;;;;;;;;;5010699;28;20038;-72
2022/03/08 07:57:57;;;;;;;15.65;14.25;;;;;;;;;;5007495;28;20076;-72
2022/03/08 08:00:23;;;;;;;18.60;16.92;;;;;;;;;;5010764;28;20041;-72
2022/03/08 08:02:49;;;;;;;17.30;15.73;;;;;;;;;;5010590;28;20038;-71
2022/03/08 08:05:15;;;;;;;16.25;14.95;;;;;;;;;;5010488;28;20100;-72
2022/03/08 08:07:40;;;;;;;17.17;15.57;;;;;;;;;;5012668;28;20037;-72
2022/03/08 08:10:06;;;;;;;17.27;15.85;;;;;;;;;;5011108;28;20382;-74
2022/03/08 08:12:32;;;;;;;17.80;16.27;;;;;;;;;;5010665;28;20033;-74
2022/03/08 08:14:57;;;;;;;16.73;15.23;;;;;;;;;;5010198;28;20559;-76
2022/03/08 08:17:23;;;;;;;17.75;16.15;;;;;;;;;;5008473;28;20042;-73
2022/03/08 08:19:48;;;;;;;17.15;15.45;;;;;;;;;;4999309;28;20072;-73
2022/03/08 08:22:14;;;;;;;17.45;15.85;;;;;;;;;;5008042;28;20080;-73
2022/03/08 08:24:40;;;;;;;17.70;16.13;;;;;;;;;;5011033;28;20121;-73
2022/03/08 08:27:06;;;;;;;17.10;15.57;;;;;;;;;;5009848;28;20034;-73
2022/03/08 08:29:32;;;;;;;17.25;15.65;;;;;;;;;;5010579;28;20426;-72
2022/03/08 08:31:57;;;;;;;17.20;15.73;;;;;;;;;;5005478;28;20041;-73
2022/03/08 08:34:23;;;;;;;17.02;15.43;;;;;;;;;;5010781;28;20041;-72
2022/03/08 08:36:48;;;;;;;17.35;15.85;;;;;;;;;;5009419;28;20049;-73
2022/03/08 08:39:15;;;;;;;17.27;15.60;;;;;;;;;;5009979;28;20046;-73
2022/03/08 08:41:44;;;;;;;16.92;15.43;;;;;;;;;;5011594;28;20038;-75
2022/03/08 08:44:11;;;;;;;17.90;16.10;;;;;;;;;;5011219;28;20125;-75
2022/03/08 08:46:37;;;;;;;17.30;15.90;;;;;;;;;;5008381;28;20494;-74
2022/03/08 08:49:04;;;;;;;17.42;15.73;;;;;;;;;;5008327;28;20033;-75
2022/03/08 08:51:31;;;;;;;17.52;15.95;;;;;;;;;;5016395;28;20040;-75
2022/03/08 08:53:56;;;;;;;17.55;16.10;;;;;;;;;;5010535;28;20060;-75
2022/03/08 08:56:22;;;;;;;17.40;15.88;;;;;;;;;;5009035;28;20494;-75
2022/03/08 08:58:48;;;;;;;16.23;14.82;;;;;;;;;;5008625;28;20104;-75
2022/03/08 09:01:14;;;;;;;18.95;16.95;;;;;;;;;;5010104;28;20550;-74
2022/03/08 09:03:39;;;;;;;17.52;16.00;;;;;;;;;;5009828;28;20038;-73
2022/03/08 09:06:05;;;;;;;17.58;16.08;;;;;;;;;;5007963;28;20030;-74
2022/03/08 09:08:31;;;;;;;17.92;16.23;;;;;;;;;;5008626;28;20117;-73
2022/03/08 09:10:57;;;;;;;18.50;16.90;;;;;;;;;;5007707;28;20491;-74
2022/03/08 09:13:24;;;;;;;18.70;16.80;;;;;;;;;;5008707;28;20037;-76
2022/03/08 09:15:50;;;;;;;24.88;17.75;;;;;;;;;;5015357;28;20052;-75
2022/03/08 09:18:16;;;;;;;20.42;18.08;;;;;;;;;;5013777;28;20029;-75
2022/03/08 09:20:42;;;;;;;51.45;27.85;;;;;;;;;;5010603;28;20120;-75
2022/03/08 09:23:09;;;;;;;26.88;22.98;;;;;;;;;;5009083;28;20382;-75
2022/03/08 09:25:35;;;;;;;16.40;15.00;;;;;;;;;;5013961;28;20044;-76
2022/03/08 09:28:06;;;;;;;15.45;14.15;;;;;;;;;;5009140;28;20037;-75
2022/03/08 09:30:33;;;;;;;16.25;14.95;;;;;;;;;;5003152;28;20033;-74
2022/03/08 09:33:00;;;;;;;16.58;15.27;;;;;;;;;;5013484;28;20037;-74
2022/03/08 09:35:26;;;;;;;16.15;14.85;;;;;;;;;;5007889;28;20519;-74
2022/03/08 09:37:53;;;;;;;15.27;14.07;;;;;;;;;;5008502;28;20125;-74
2022/03/08 09:40:19;;;;;;;15.90;14.70;;;;;;;;;;5004743;28;20045;-74
2022/03/08 09:42:45;;;;;;;15.13;14.00;;;;;;;;;;5008374;28;20042;-75
2022/03/08 09:45:11;;;;;;;15.75;14.10;;;;;;;;;;5009149;28;20033;-74
2022/03/08 09:47:37;;;;;;;15.15;14.05;;;;;;;;;;5008829;28;20413;-75
2022/03/08 09:50:04;;;;;;;15.38;14.18;;;;;;;;;;5010065;28;20038;-75
2022/03/08 09:52:36;;;;;;;14.63;13.52;;;;;;;;;;5009944;28;20092;-75
2022/03/08 09:55:02;;;;;;;14.85;13.65;;;;;;;;;;5006670;28;20084;-74
2022/03/08 09:57:28;;;;;;;15.40;14.10;;;;;;;;;;5008626;28;20077;-74
2022/03/08 09:59:54;;;;;;;14.98;13.68;;;;;;;;;;5005184;28;20092;-74
2022/03/08 10:02:22;;;;;;;15.90;14.50;;;;;;;;;;5008479;28;20040;-74
2022/03/08 10:05:04;;;;;;;13.77;12.68;;;;;;;;;;5010231;28;20105;-75
2022/03/08 10:07:30;;;;;;;14.77;13.50;;;;;;;;;;5011225;28;20556;-75
2022/03/08 10:09:57;;;;;;;14.48;13.30;;;;;;;;;;5012866;28;20034;-74
2022/03/08 10:12:24;;;;;;;14.68;13.48;;;;;;;;;;5018388;28;20129;-75
2022/03/08 10:14:50;;;;;;;15.75;14.55;;;;;;;;;;5000542;28;20388;-77
2022/03/08 10:17:39;;;;;;;13.98;12.90;;;;;;;;;;5016835;28;20538;-76
2022/03/08 10:20:10;;;;;;;14.35;13.25;;;;;;;;;;5019302;28;20056;-74
2022/03/08 10:22:39;;;;;;;15.05;13.73;;;;;;;;;;5016938;28;20034;-73
2022/03/08 10:25:31;;;;;;;15.23;14.02;;;;;;;;;;5006813;28;20048;-74
2022/03/08 10:27:57;;;;;;;15.55;14.00;;;;;;;;;;5006019;28;20084;-74
2022/03/08 10:30:28;;;;;;;14.80;13.60;;;;;;;;;;5008363;28;20045;-74
2022/03/08 10:32:56;;;;;;;14.77;13.57;;;;;;;;;;5008051;28;20486;-75
2022/03/08 10:35:23;;;;;;;15.45;14.23;;;;;;;;;;5006370;28;20030;-76
2022/03/08 10:37:49;;;;;;;16.85;15.25;;;;;;;;;;5008447;28;20051;-73
2022/03/08 10:40:29;;;;;;;13.77;12.77;;;;;;;;;;4997647;28;20046;-74
2022/03/08 10:43:00;;;;;;;15.55;14.15;;;;;;;;;;5002542;28;20034;-74
2022/03/08 10:45:28;;;;;;;14.52;13.45;;;;;;;;;;5007894;28;20489;-74
2022/03/08 10:47:54;;;;;;;14.60;13.35;;;;;;;;;;5009516;28;20034;-73
2022/03/08 10:50:31;;;;;;;14.50;13.38;;;;;;;;;;5006846;28;20037;-74
2022/03/08 10:53:00;;;;;;;15.18;13.65;;;;;;;;;;5008502;28;20113;-74
2022/03/08 10:55:31;;;;;;;15.10;13.90;;;;;;;;;;5008857;28;20464;-76
2022/03/08 10:58:00;;;;;;;14.23;13.02;;;;;;;;;;4993907;28;20073;-76
2022/03/08 11:00:27;;;;;;;14.07;12.98;;;;;;;;;;4982190;28;20516;-76
2022/03/08 11:02:58;;;;;;;13.55;12.45;;;;;;;;;;5008258;28;20073;-77
2022/03/08 11:05:27;;;;;;;13.95;12.68;;;;;;;;;;5007652;28;20045;-76
2022/03/08 11:07:54;;;;;;;14.80;13.70;;;;;;;;;;5006171;28;20327;-74
2022/03/08 11:10:20;;;;;;;14.35;13.20;;;;;;;;;;5008459;28;20029;-77
2022/03/08 11:12:46;;;;;;;14.27;13.18;;;;;;;;;;5008215;28;20065;-77
2022/03/08 11:15:16;;;;;;;14.57;13.30;;;;;;;;;;5007650;28;20037;-76
2022/03/08 11:17:45;;;;;;;14.75;13.50;;;;;;;;;;5003005;28;20033;-76
2022/03/08 11:20:12;;;;;;;14.98;13.48;;;;;;;;;;5011880;28;20497;-75
2022/03/08 11:22:39;;;;;;;15.48;13.88;;;;;;;;;;4996777;28;20374;-77
2022/03/08 11:25:10;;;;;;;17.40;15.80;;;;;;;;;;5015974;28;20160;-77
2022/03/08 11:27:39;;;;;;;15.05;13.95;;;;;;;;;;5013506;28;20033;-76
2022/03/08 11:30:06;;;;;;;14.15;13.05;;;;;;;;;;5011786;28;20442;-76
2022/03/08 11:32:38;;;;;;;15.25;13.95;;;;;;;;;;5008459;28;20052;-76
2022/03/08 11:35:21;;;;;;;13.55;12.60;;;;;;;;;;5019503;28;20041;-75
2022/03/08 11:37:49;;;;;;;14.52;13.35;;;;;;;;;;5011332;28;20041;-74
2022/03/08 11:40:17;;;;;;;14.40;13.30;;;;;;;;;;5006363;28;20038;-75
2022/03/08 11:42:47;;;;;;;14.87;13.70;;;;;;;;;;5010302;28;20408;-75
2022/03/08 11:45:20;;;;;;;16.08;14.73;;;;;;;;;;4999622;28;20347;-75
2022/03/08 11:47:55;;;;;;;13.82;12.73;;;;;;;;;;4992765;28;20134;-75
2022/03/08 11:50:27;;;;;;;15.80;14.32;;;;;;;;;;5011905;28;20041;-76
2022/03/08 11:53:14;;;;;;;15.20;13.90;;;;;;;;;;5011188;28;20034;-74
2022/03/08 11:55:46;;;;;;;14.68;13.30;;;;;;;;;;5008027;28;20050;-77
2022/03/08 11:58:13;;;;;;;15.25;14.05;;;;;;;;;;5013244;28;20045;-77
2022/03/08 12:00:48;;;;;;;13.43;12.45;;;;;;;;;;5011051;28;20038;-75
2022/03/08 12:03:16;;;;;;;14.40;13.30;;;;;;;;;;4982852;28;20414;-75
2022/03/08 12:06:01;;;;;;;13.87;12.80;;;;;;;;;;5009470;28;20034;-74
2022/03/08 12:08:26;;;;;;;15.10;13.80;;;;;;;;;;4997039;28;20046;-76
2022/03/08 12:11:06;;;;;;;15.60;14.38;;;;;;;;;;4991316;28;20401;-75
2022/03/08 12:13:37;;;;;;;16.50;15.00;;;;;;;;;;5007843;28;20092;-77
2022/03/08 12:16:05;;;;;;;15.60;14.20;;;;;;;;;;5005870;28;20046;-77
2022/03/08 12:18:49;;;;;;;15.85;14.52;;;;;;;;;;5014059;28;20068;-76
2022/03/08 12:21:19;;;;;;;15.68;14.27;;;;;;;;;;5008447;28;20481;-76
2022/03/08 12:23:50;;;;;;;;;;;;;;;;;;5003147;28;20152;-77
2022/03/08 12:26:26;;;;;;;16.05;14.68;;;;;;;;;;5008773;28;20012;-76
2022/03/08 12:29:22;;;;;;;15.98;14.57;;;;;;;;;;5008171;28;20053;-76
2022/03/08 12:32:06;;;;;;;16.02;14.65;;;;;;;;;;5007638;28;20113;-76
2022/03/08 12:34:43;;;;;;;17.83;15.02;;;;;;;;;;4998940;28;20479;-77
2022/03/08 12:37:24;;;;;;;16.05;14.45;;;;;;;;;;5001691;28;20050;-77
2022/03/08 12:39:59;;;;;;;14.27;13.25;;;;;;;;;;5004529;28;20512;-75
2022/03/08 12:42:34;;;;;;;15.07;13.70;;;;;;;;;;5008442;28;20045;-74
2022/03/08 12:45:12;;;;;;;15.40;14.07;;;;;;;;;;5007471;28;20042;-75
2022/03/08 12:47:42;;;;;;;15.10;13.80;;;;;;;;;;5008260;28;20045;-74
2022/03/08 12:50:13;;;;;;;14.80;13.50;;;;;;;;;;5008496;28;20119;-74
2022/03/08 12:52:44;;;;;;;15.57;14.07;;;;;;;;;;5008522;28;20048;-75
2022/03/08 12:55:13;;;;;;;14.77;13.27;;;;;;;;;;5008734;28;20069;-75
2022/03/08 12:57:50;;;;;;;15.05;13.57;;;;;;;;;;4998160;28;20050;-75
2022/03/08 13:00:26;;;;;;;14.45;13.32;;;;;;;;;;5003550;28;20049;-76
2022/03/08 13:02:52;;;;;;;14.75;13.55;;;;;;;;;;5007736;28;20116;-76
2022/03/08 13:05:24;;;;;;;14.70;13.35;;;;;;;;;;5007542;28;20096;-76
2022/03/08 13:07:52;;;;;;;15.35;13.85;;;;;;;;;;5000656;28;20037;-76
2022/03/08 13:10:18;;;;;;;13.90;12.80;;;;;;;;;;5013291;28;20060;-76
2022/03/08 13:12:52;;;;;;;13.38;12.15;;;;;;;;;;5007005;28;20317;-77
2022/03/08 13:15:21;;;;;;;14.95;13.55;;;;;;;;;;5006703;28;20509;-76
2022/03/08 13:17:49;;;;;;;14.25;13.05;;;;;;;;;;5006966;28;20871;-76
2022/03/08 13:20:24;;;;;;;16.50;15.00;;;;;;;;;;5017900;28;20409;-76
2022/03/08 13:22:50;;;;;;;15.30;14.00;;;;;;;;;;5003363;28;20525;-76
2022/03/08 13:25:16;;;;;;;13.25;12.32;;;;;;;;;;5009561;28;20280;-76
2022/03/08 13:27:47;;;;;;;14.63;13.35;;;;;;;;;;5018607;28;20393;-76
2022/03/08 13:30:18;;;;;;;14.63;13.27;;;;;;;;;;5012711;28;20045;-76
2022/03/08 13:32:43;;;;;;;14.55;13.45;;;;;;;;;;5008324;28;20045;-75
2022/03/08 13:35:10;;;;;;;14.43;13.32;;;;;;;;;;5006498;28;20037;-76
2022/03/08 13:37:49;;;;;;;14.40;13.13;;;;;;;;;;5007246;28;20046;-74
2022/03/08 13:40:29;;;;;;;13.70;12.50;;;;;;;;;;5007325;28;20049;-75
2022/03/08 13:42:58;;;;;;;13.50;12.43;;;;;;;;;;5008095;28;20113;-75
2022/03/08 13:45:25;;;;;;;14.07;12.88;;;;;;;;;;5006260;28;20125;-75
2022/03/08 13:47:54;;;;;;;13.95;12.95;;;;;;;;;;5011489;28;20045;-75
2022/03/08 13:50:25;;;;;;;14.02;12.88;;;;;;;;;;5010724;28;20035;-75
2022/03/08 13:53:04;;;;;;;16.50;15.00;;;;;;;;;;5009734;28;20040;-75
2022/03/08 13:55:31;;;;;;;16.92;15.43;;;;;;;;;;5021228;28;20033;-75
2022/03/08 13:57:59;;;;;;;15.15;13.95;;;;;;;;;;5019718;28;20082;-75
2022/03/08 14:00:37;;;;;;;16.65;14.95;;;;;;;;;;5032584;28;20035;-74
2022/03/08 14:03:08;;;;;;;15.43;13.85;;;;;;;;;;5015410;28;20049;-75
2022/03/08 14:05:58;;;;;;;14.75;13.52;;;;;;;;;;5014135;28;20053;-76
2022/03/08 14:08:31;;;;;;;14.65;13.55;;;;;;;;;;5002337;28;20071;-75
2022/03/08 14:11:04;;;;;;;15.15;13.70;;;;;;;;;;4987884;28;20081;-75
2022/03/08 14:13:32;;;;;;;16.40;15.00;;;;;;;;;;5012259;28;20052;-74
2022/03/08 14:16:07;;;;;;;15.35;13.88;;;;;;;;;;5018555;28;20180;-75
2022/03/08 14:18:34;;;;;;;14.90;13.57;;;;;;;;;;5005301;28;20042;-75
2022/03/08 14:21:02;;;;;;;17.95;15.52;;;;;;;;;;5009417;28;20195;-75